Terminal Aerodrome Forecast
Issued by NWS Jackson, KY

Home | Current Version | Previous Version | Text Only | Print | Product List | Glossary On
Versions: 1 2 3 4 5 6 7 8 9 10 11
928
FTUS43 KJKL 031737
TAFLOZ
TAF
KLOZ 031737Z 0318/0418 23014G22KT P6SM SKC
     FM032300 27008KT P6SM SKC
     FM040300 29007KT P6SM BKN025
     FM041400 28005KT P6SM SCT025=

USA.gov is the U.S. government's official web portal to all federal, state and local government web resources and services.